createdAt,value
2018-01-22T00:00:48.138Z,82.16
2018-01-22T00:03:16.565Z,82.21
2018-01-22T00:05:45.003Z,82.61
2018-01-22T00:08:13.474Z,82.24
2018-01-22T00:10:41.913Z,82.42
2018-01-22T00:13:10.361Z,82.09
2018-01-22T00:15:38.814Z,82.17
2018-01-22T00:18:07.227Z,82.20
2018-01-22T00:20:35.613Z,81.92
2018-01-22T00:23:04.043Z,82.34
2018-01-22T00:25:32.478Z,82.18
2018-01-22T00:28:00.879Z,82.42
2018-01-22T00:30:29.329Z,82.87
2018-01-22T00:32:57.758Z,82.75
2018-01-22T00:35:26.175Z,82.76
2018-01-22T00:37:54.658Z,82.36
2018-01-22T00:40:23.077Z,82.33
2018-01-22T00:42:51.489Z,82.41
2018-01-22T00:45:19.929Z,82.07
2018-01-22T00:47:48.352Z,82.14
2018-01-22T00:50:16.774Z,81.88
2018-01-22T00:52:45.253Z,81.60
2018-01-22T00:55:13.661Z,81.53
2018-01-22T00:57:42.073Z,81.69
2018-01-22T01:00:11.429Z,81.48
2018-01-22T01:02:39.845Z,81.56
2018-01-22T01:05:08.278Z,81.53
2018-01-22T01:07:36.749Z,81.72
2018-01-22T01:10:05.140Z,81.38
2018-01-22T01:12:33.555Z,81.51
2018-01-22T01:15:01.980Z,82.07
2018-01-22T01:17:30.366Z,82.31
2018-01-22T01:19:58.781Z,82.25
2018-01-22T01:22:27.278Z,82.25
2018-01-22T01:24:55.705Z,82.52
2018-01-22T01:27:24.138Z,82.65
2018-01-22T01:29:52.601Z,82.64
2018-01-22T01:32:21.018Z,82.68
2018-01-22T01:34:49.414Z,82.58
2018-01-22T01:37:17.865Z,82.48
2018-01-22T01:39:46.289Z,82.45
2018-01-22T01:42:14.677Z,82.38
2018-01-22T01:44:43.117Z,82.45
2018-01-22T01:47:11.507Z,82.27
2018-01-22T01:49:39.938Z,82.39
2018-01-22T01:52:08.403Z,82.35
2018-01-22T01:54:36.806Z,82.23
2018-01-22T01:57:05.209Z,82.08
2018-01-22T01:59:33.642Z,82.07
2018-01-22T02:02:02.048Z,82.42
2018-01-22T02:04:30.469Z,82.62
2018-01-22T02:06:58.930Z,82.23
2018-01-22T02:09:32.163Z,82.14
2018-01-22T02:12:00.625Z,82.15
2018-01-22T02:14:29.057Z,82.05
2018-01-22T02:16:57.494Z,81.56
2018-01-22T02:19:25.959Z,81.65
2018-01-22T02:21:54.357Z,81.73
2018-01-22T02:24:22.774Z,81.56
2018-01-22T02:26:51.198Z,81.76
2018-01-22T02:29:19.585Z,81.47
2018-01-22T02:31:48.043Z,81.61
2018-01-22T02:34:16.512Z,82.01
2018-01-22T02:36:44.889Z,81.72
2018-01-22T02:39:13.285Z,81.75
2018-01-22T02:41:41.750Z,81.55
2018-01-22T02:44:10.141Z,81.59
2018-01-22T02:46:38.597Z,81.40
2018-01-22T02:49:07.045Z,81.62
2018-01-22T02:51:35.771Z,81.24
2018-01-22T02:54:04.215Z,81.09
2018-01-22T02:56:32.693Z,80.66
2018-01-22T02:59:01.126Z,80.39
2018-01-22T03:01:29.564Z,80.44
2018-01-22T03:03:58.018Z,81.13
2018-01-22T03:06:26.408Z,80.75
2018-01-22T03:08:54.842Z,80.78
2018-01-22T03:11:23.335Z,80.45
2018-01-22T03:13:51.726Z,80.34
2018-01-22T03:16:20.154Z,79.95
2018-01-22T03:18:48.638Z,80.18
2018-01-22T03:21:17.084Z,79.74
2018-01-22T03:23:45.517Z,79.80
2018-01-22T03:26:13.961Z,80.07
2018-01-22T03:28:42.354Z,80.52
2018-01-22T03:31:10.796Z,79.35
2018-01-22T03:33:39.262Z,79.97
2018-01-22T03:36:07.687Z,79.79
2018-01-22T03:38:36.107Z,79.42
2018-01-22T03:41:04.582Z,79.59
2018-01-22T03:43:32.969Z,79.19
2018-01-22T03:46:01.358Z,79.23
2018-01-22T03:48:29.815Z,79.04
2018-01-22T03:50:58.243Z,79.13
2018-01-22T03:53:26.630Z,79.10
2018-01-22T03:55:55.054Z,79.42
2018-01-22T03:58:23.444Z,79.21
2018-01-22T04:00:51.855Z,78.91
2018-01-22T04:03:20.334Z,78.96
2018-01-22T04:05:48.731Z,79.29
2018-01-22T04:08:17.146Z,79.23
2018-01-22T04:10:45.625Z,78.89
2018-01-22T04:13:14.026Z,78.93
2018-01-22T04:15:42.426Z,79.38
2018-01-22T04:18:11.806Z,79.21
2018-01-22T04:20:40.194Z,79.06
2018-01-22T04:23:08.605Z,78.84
2018-01-22T04:25:37.056Z,79.34
2018-01-22T04:28:05.481Z,79.05
2018-01-22T04:30:33.863Z,78.91
2018-01-22T04:33:02.319Z,78.78
2018-01-22T04:35:30.741Z,79.07
2018-01-22T04:37:59.129Z,79.03
2018-01-22T04:40:27.573Z,79.28
2018-01-22T04:42:56.002Z,79.08
2018-01-22T04:45:24.471Z,79.34
2018-01-22T04:47:52.927Z,78.79
2018-01-22T04:50:21.331Z,78.77
2018-01-22T04:52:49.761Z,79.02
2018-01-22T04:55:18.262Z,79.08
2018-01-22T04:57:46.662Z,79.30
2018-01-22T05:00:15.083Z,79.42
2018-01-22T05:02:43.521Z,79.21
2018-01-22T05:05:11.927Z,79.24
2018-01-22T05:07:40.351Z,78.98
2018-01-22T05:10:08.789Z,79.08
2018-01-22T05:12:37.222Z,78.99
2018-01-22T05:15:05.645Z,79.17
2018-01-22T05:17:34.067Z,78.78
2018-01-22T05:20:02.831Z,79.01
2018-01-22T05:22:31.253Z,78.79
2018-01-22T05:24:59.693Z,78.93
2018-01-22T05:27:28.086Z,78.79
2018-01-22T05:29:56.499Z,79.06
2018-01-22T05:32:24.957Z,78.67
2018-01-22T05:34:53.340Z,78.68
2018-01-22T05:37:21.776Z,78.78
2018-01-22T05:39:50.214Z,78.75
2018-01-22T05:42:18.652Z,79.00
2018-01-22T05:44:47.093Z,78.52
2018-01-22T05:47:15.575Z,78.93
2018-01-22T05:49:43.962Z,78.74
2018-01-22T05:52:12.386Z,79.01
2018-01-22T05:54:40.838Z,79.02
2018-01-22T05:57:09.270Z,79.54
2018-01-22T05:59:37.697Z,79.74
2018-01-22T06:02:13.028Z,79.77
2018-01-22T06:04:41.480Z,80.07
2018-01-22T06:07:09.928Z,80.07
2018-01-22T06:09:38.397Z,79.92
2018-01-22T06:12:06.828Z,79.67
2018-01-22T06:14:35.247Z,79.43
2018-01-22T06:17:03.686Z,79.38
2018-01-22T06:19:32.122Z,79.58
2018-01-22T06:22:00.562Z,79.65
2018-01-22T06:24:29.044Z,80.36
2018-01-22T06:26:57.473Z,80.48
2018-01-22T06:29:25.932Z,80.70
2018-01-22T06:31:54.411Z,80.77
2018-01-22T06:34:22.807Z,81.31
2018-01-22T06:36:51.231Z,81.14
2018-01-22T06:39:19.702Z,81.40
2018-01-22T06:41:48.130Z,82.27
2018-01-22T06:44:16.549Z,82.23
2018-01-22T06:46:45.008Z,82.63
2018-01-22T06:49:13.408Z,82.74
2018-01-22T06:51:41.786Z,83.10
2018-01-22T06:54:10.272Z,83.52
2018-01-22T06:56:38.720Z,83.24
2018-01-22T06:59:07.151Z,82.98
2018-01-22T07:01:35.581Z,82.60
2018-01-22T07:04:03.979Z,82.39
2018-01-22T07:06:32.366Z,82.34
2018-01-22T07:09:00.851Z,82.56
2018-01-22T07:11:29.310Z,82.62
2018-01-22T07:13:57.731Z,83.02
2018-01-22T07:16:26.196Z,82.70
2018-01-22T07:18:54.615Z,83.03
2018-01-22T07:21:23.033Z,83.02
2018-01-22T07:23:51.507Z,83.17
2018-01-22T07:26:19.923Z,83.08
2018-01-22T07:28:48.319Z,83.09
2018-01-22T07:31:16.865Z,83.21
2018-01-22T07:33:45.278Z,83.25
2018-01-22T07:36:13.694Z,83.62
2018-01-22T07:38:42.127Z,83.33
2018-01-22T07:41:10.515Z,83.68
2018-01-22T07:43:38.897Z,83.42
2018-01-22T07:46:07.328Z,83.43
2018-01-22T07:48:35.742Z,83.28
2018-01-22T07:51:04.133Z,83.28
2018-01-22T07:53:32.594Z,83.46
2018-01-22T07:56:01.003Z,83.34
2018-01-22T07:58:29.416Z,83.26
2018-01-22T08:00:57.872Z,83.34
2018-01-22T08:03:26.259Z,83.13
2018-01-22T08:05:54.698Z,83.07
2018-01-22T08:08:23.137Z,83.11
2018-01-22T08:10:51.519Z,83.26
2018-01-22T08:13:19.896Z,82.88
2018-01-22T08:15:48.352Z,82.65
2018-01-22T08:18:16.802Z,82.77
2018-01-22T08:20:45.220Z,82.57
2018-01-22T08:23:13.686Z,82.62
2018-01-22T08:25:42.069Z,82.41
2018-01-22T08:28:10.450Z,82.36
2018-01-22T08:30:38.908Z,82.08
2018-01-22T08:33:07.314Z,81.84
2018-01-22T08:35:35.706Z,81.79
2018-01-22T08:38:04.148Z,81.34
2018-01-22T08:40:32.529Z,81.60
2018-01-22T08:43:00.935Z,82.00
2018-01-22T08:45:29.399Z,82.24
2018-01-22T08:47:57.809Z,82.15
2018-01-22T08:50:26.189Z,82.16
2018-01-22T08:52:54.681Z,82.59
2018-01-22T08:55:23.102Z,82.36
2018-01-22T08:57:51.512Z,82.77
2018-01-22T09:00:19.959Z,82.40
2018-01-22T09:02:48.371Z,82.71
2018-01-22T09:05:16.782Z,82.59
2018-01-22T09:07:45.506Z,82.45
2018-01-22T09:10:13.882Z,82.63
2018-01-22T09:12:42.262Z,82.79
2018-01-22T09:15:10.701Z,82.67
2018-01-22T09:17:39.090Z,82.72
2018-01-22T09:20:07.490Z,82.97
2018-01-22T09:22:35.918Z,83.08
2018-01-22T09:25:04.289Z,83.14
2018-01-22T09:27:32.681Z,83.00
2018-01-22T09:30:01.127Z,83.17
2018-01-22T09:32:29.550Z,82.94
2018-01-22T09:34:57.945Z,82.89
2018-01-22T09:37:26.397Z,82.98
2018-01-22T09:39:54.809Z,83.28
2018-01-22T09:42:23.238Z,83.23
2018-01-22T09:44:51.700Z,83.02
2018-01-22T09:47:20.094Z,83.22
2018-01-22T09:49:48.478Z,83.23
2018-01-22T09:52:16.942Z,83.24
2018-01-22T09:54:45.372Z,83.38
2018-01-22T09:57:13.765Z,83.86
2018-01-22T09:59:42.188Z,84.34
2018-01-22T10:02:10.557Z,84.18
2018-01-22T10:04:38.959Z,84.45
2018-01-22T10:07:07.436Z,84.47
2018-01-22T10:09:35.813Z,84.71
2018-01-22T10:12:04.219Z,84.37
2018-01-22T10:14:32.640Z,84.47
2018-01-22T10:17:01.055Z,84.66
2018-01-22T10:19:29.462Z,84.86
2018-01-22T10:21:57.907Z,84.71
2018-01-22T10:24:26.342Z,84.95
2018-01-22T10:26:54.729Z,84.65
2018-01-22T10:29:23.168Z,84.85
2018-01-22T10:31:51.543Z,85.27
2018-01-22T10:34:19.930Z,85.37
2018-01-22T10:36:48.382Z,85.23
2018-01-22T10:39:16.761Z,85.32
2018-01-22T10:41:45.142Z,85.10
2018-01-22T10:44:13.564Z,85.08
2018-01-22T10:46:41.983Z,85.40
2018-01-22T10:49:10.410Z,85.27
2018-01-22T10:51:38.863Z,85.19
2018-01-22T10:54:07.246Z,85.29
2018-01-22T10:56:35.653Z,85.48
2018-01-22T10:59:04.080Z,85.77
2018-01-22T11:01:32.485Z,86.09
2018-01-22T11:04:00.863Z,85.85
2018-01-22T11:06:29.335Z,85.88
2018-01-22T11:08:57.750Z,86.05
2018-01-22T11:11:26.165Z,86.04
2018-01-22T11:13:54.628Z,86.05
2018-01-22T11:16:23.020Z,86.27
2018-01-22T11:18:51.436Z,86.23
2018-01-22T11:21:19.895Z,86.28
2018-01-22T11:23:48.316Z,85.89
2018-01-22T11:26:16.719Z,86.01
2018-01-22T11:28:45.149Z,85.96
2018-01-22T11:31:13.534Z,86.27
2018-01-22T11:33:41.952Z,86.34
2018-01-22T11:36:10.405Z,86.19
2018-01-22T11:38:38.830Z,85.98
2018-01-22T11:41:07.245Z,85.75
2018-01-22T11:43:35.669Z,86.08
2018-01-22T11:46:04.091Z,86.37
2018-01-22T11:48:32.514Z,86.14
2018-01-22T11:51:00.995Z,86.33
2018-01-22T11:53:29.408Z,86.36
2018-01-22T11:55:57.816Z,86.23
2018-01-22T11:58:26.279Z,86.04
2018-01-22T12:00:54.670Z,85.97
2018-01-22T12:03:23.085Z,86.03
2018-01-22T12:05:51.651Z,85.99
2018-01-22T12:08:20.025Z,86.00
2018-01-22T12:10:48.406Z,85.75
2018-01-22T12:13:16.841Z,85.78
2018-01-22T12:15:45.908Z,100.00
2018-01-22T12:18:14.337Z,100.00
2018-01-22T12:20:42.794Z,100.00
2018-01-22T12:23:11.239Z,100.00
2018-01-22T12:25:39.709Z,100.00
2018-01-22T12:28:08.181Z,100.00
2018-01-22T12:30:36.635Z,100.00
2018-01-22T12:33:05.059Z,100.00
2018-01-22T12:35:33.551Z,100.00
2018-01-22T12:38:02.009Z,100.00
2018-01-22T12:40:30.455Z,100.00
2018-01-22T12:42:59.858Z,100.00
2018-01-22T12:45:28.258Z,100.00
2018-01-22T12:47:56.699Z,100.00
2018-01-22T12:50:25.145Z,100.00
2018-01-22T12:52:53.594Z,100.00
2018-01-22T12:55:22.018Z,100.00
2018-01-22T12:57:50.490Z,100.00
2018-01-22T13:00:18.906Z,100.00
2018-01-22T13:02:47.340Z,100.00
2018-01-22T13:05:15.983Z,100.00
2018-01-22T13:07:44.398Z,100.00
2018-01-22T13:10:12.810Z,100.00
2018-01-22T13:12:41.287Z,100.00
2018-01-22T13:15:09.726Z,100.00
2018-01-22T13:17:38.144Z,100.00
2018-01-22T13:20:06.642Z,100.00
2018-01-22T13:22:35.075Z,100.00
2018-01-22T13:25:03.525Z,100.00
2018-01-22T13:27:32.018Z,100.00
2018-01-22T13:30:00.442Z,100.00
2018-01-22T13:32:28.846Z,100.00
2018-01-22T13:34:57.336Z,100.00
2018-01-22T13:37:25.741Z,100.00
2018-01-22T13:39:59.691Z,100.00
2018-01-22T13:42:28.102Z,100.00
2018-01-22T13:44:56.509Z,100.00
2018-01-22T13:47:24.982Z,100.00
2018-01-22T13:49:53.409Z,100.00
2018-01-22T13:52:21.838Z,100.00
2018-01-22T13:54:50.334Z,100.00
2018-01-22T13:57:18.775Z,100.00
2018-01-22T13:59:47.217Z,100.00
2018-01-22T14:02:15.674Z,100.00
2018-01-22T14:04:44.098Z,100.00
2018-01-22T14:07:12.540Z,100.00
2018-01-22T14:09:40.997Z,100.00
2018-01-22T14:12:09.439Z,100.00
2018-01-22T14:14:37.898Z,100.00
2018-01-22T14:17:06.369Z,100.00
2018-01-22T14:19:34.817Z,100.00
2018-01-22T14:22:03.268Z,100.00
2018-01-22T14:24:32.051Z,100.00
2018-01-22T14:27:00.491Z,100.00
2018-01-22T14:29:28.909Z,100.00
2018-01-22T14:31:57.374Z,100.00
2018-01-22T14:34:25.806Z,100.00
2018-01-22T14:36:54.226Z,100.00
2018-01-22T14:39:22.668Z,100.00
2018-01-22T14:41:51.077Z,100.00
2018-01-22T14:44:19.514Z,100.00
2018-01-22T14:46:47.974Z,100.00
2018-01-22T14:49:16.381Z,100.00
2018-01-22T14:51:44.807Z,100.00
2018-01-22T14:54:13.254Z,100.00
2018-01-22T14:56:41.660Z,100.00
2018-01-22T14:59:10.084Z,100.00
2018-01-22T15:01:38.582Z,100.00
2018-01-22T15:04:07.033Z,100.00
2018-01-22T15:06:35.482Z,100.00
2018-01-22T15:09:04.034Z,100.00
2018-01-22T15:11:32.475Z,100.00
2018-01-22T15:14:00.877Z,100.00
2018-01-22T15:16:29.343Z,100.00
2018-01-22T15:18:57.759Z,100.00
2018-01-22T15:21:26.174Z,100.00
2018-01-22T15:23:54.646Z,100.00
2018-01-22T15:26:23.082Z,100.00
2018-01-22T15:28:51.568Z,100.00
2018-01-22T15:31:20.016Z,100.00
2018-01-22T15:33:48.451Z,100.00
2018-01-22T15:36:16.865Z,100.00
2018-01-22T15:38:45.335Z,100.00
2018-01-22T15:41:13.745Z,100.00
2018-01-22T15:43:42.216Z,100.00
2018-01-22T15:46:10.856Z,100.00
2018-01-22T15:48:39.266Z,100.00
2018-01-22T15:51:07.708Z,100.00
2018-01-22T15:53:36.210Z,100.00
2018-01-22T15:56:04.622Z,100.00
2018-01-22T15:58:33.066Z,100.00
2018-01-22T16:01:01.550Z,100.00
2018-01-22T16:03:30.035Z,100.00
2018-01-22T16:05:58.477Z,100.00
2018-01-22T16:08:26.961Z,100.00
2018-01-22T16:10:55.377Z,100.00
2018-01-22T16:13:23.819Z,100.00
2018-01-22T16:15:52.308Z,100.00
2018-01-22T16:18:20.752Z,100.00
2018-01-22T16:20:49.195Z,100.00
2018-01-22T16:23:17.646Z,100.00
2018-01-22T16:25:46.088Z,100.00
2018-01-22T16:28:14.547Z,100.00
2018-01-22T16:30:43.186Z,100.00
2018-01-22T16:33:11.626Z,100.00
2018-01-22T16:35:40.079Z,100.00
2018-01-22T16:38:08.556Z,100.00
2018-01-22T16:40:36.985Z,100.00
2018-01-22T16:43:05.421Z,100.00
2018-01-22T16:45:33.947Z,100.00
2018-01-22T16:48:02.375Z,100.00
2018-01-22T16:50:30.814Z,100.00
2018-01-22T16:52:59.314Z,100.00
2018-01-22T16:55:27.758Z,100.00
2018-01-22T16:57:56.184Z,100.00
2018-01-22T17:00:24.676Z,100.00
2018-01-22T17:02:53.097Z,100.00
2018-01-22T17:05:21.546Z,100.00
2018-01-22T17:07:50.009Z,100.00
2018-01-22T17:10:18.422Z,100.00
2018-01-22T17:12:46.835Z,100.00
2018-01-22T17:15:15.326Z,100.00
2018-01-22T17:17:43.781Z,100.00
2018-01-22T17:20:12.232Z,100.00
2018-01-22T17:22:40.689Z,100.00
2018-01-22T17:25:26.769Z,89.31
2018-01-22T17:27:55.228Z,89.70
2018-01-22T17:30:23.650Z,89.99
2018-01-22T17:32:52.071Z,90.06
2018-01-22T17:35:20.545Z,90.09
2018-01-22T17:37:49.027Z,90.27
2018-01-22T17:40:17.447Z,90.09
2018-01-22T17:42:46.006Z,90.62
2018-01-22T17:45:14.422Z,90.66
2018-01-22T17:47:42.886Z,90.35
2018-01-22T17:50:11.362Z,90.34
2018-01-22T17:52:39.754Z,90.58
2018-01-22T17:55:08.137Z,90.47
2018-01-22T17:57:36.617Z,90.14
2018-01-22T18:00:06.013Z,90.10
2018-01-22T18:02:34.439Z,90.45
2018-01-22T18:05:02.907Z,90.56
2018-01-22T18:07:31.339Z,90.25
2018-01-22T18:09:59.766Z,90.52
2018-01-22T18:12:28.224Z,90.43
2018-01-22T18:14:56.643Z,90.26
2018-01-22T18:17:25.032Z,90.23
2018-01-22T18:19:53.477Z,90.12
2018-01-22T18:22:21.871Z,90.06
2018-01-22T18:24:50.256Z,90.28
2018-01-22T18:27:18.723Z,90.19
2018-01-22T18:29:47.126Z,90.07
2018-01-22T18:32:15.542Z,89.89
2018-01-22T18:34:44.110Z,89.79
2018-01-22T18:37:12.490Z,89.43
2018-01-22T18:39:40.905Z,89.88
2018-01-22T18:42:09.358Z,89.67
2018-01-22T18:44:37.757Z,89.72
2018-01-22T18:47:06.186Z,89.71
2018-01-22T18:49:34.638Z,89.85
2018-01-22T18:52:03.078Z,89.58
2018-01-22T18:54:31.465Z,89.48
2018-01-22T18:56:59.921Z,89.79
2018-01-22T18:59:28.335Z,89.60
2018-01-22T19:01:56.785Z,89.69
2018-01-22T19:04:25.258Z,89.80
2018-01-22T19:06:53.645Z,89.86
2018-01-22T19:09:22.062Z,89.67
2018-01-22T19:11:50.524Z,89.84
2018-01-22T19:14:18.919Z,89.63
2018-01-22T19:16:47.303Z,89.67
2018-01-22T19:19:15.743Z,89.42
2018-01-22T19:21:44.160Z,89.47
2018-01-22T19:24:12.570Z,89.32
2018-01-22T19:26:41.043Z,89.37
2018-01-22T19:29:09.462Z,89.16
2018-01-22T19:31:37.887Z,89.21
2018-01-22T19:34:06.354Z,89.00
2018-01-22T19:36:34.750Z,89.12
2018-01-22T19:39:03.200Z,88.96
2018-01-22T19:41:31.692Z,89.15
2018-01-22T19:44:00.089Z,89.09
2018-01-22T19:46:28.507Z,89.07
2018-01-22T19:48:56.969Z,88.62
2018-01-22T19:51:25.394Z,89.09
2018-01-22T19:53:53.817Z,89.06
2018-01-22T19:56:22.247Z,89.23
2018-01-22T19:58:50.665Z,89.22
2018-01-22T20:01:19.057Z,88.88
2018-01-22T20:03:47.496Z,89.33
2018-01-22T20:06:15.922Z,89.00
2018-01-22T20:08:44.314Z,88.95
2018-01-22T20:11:12.746Z,88.97
2018-01-22T20:13:41.199Z,88.80
2018-01-22T20:16:09.596Z,88.74
2018-01-22T20:18:38.068Z,88.87
2018-01-22T20:21:06.550Z,89.09
2018-01-22T20:23:34.954Z,89.03
2018-01-22T20:26:03.424Z,88.76
2018-01-22T20:28:31.813Z,88.86
2018-01-22T20:31:00.247Z,88.35
2018-01-22T20:33:28.712Z,88.99
2018-01-22T20:35:57.138Z,89.03
2018-01-22T20:38:25.593Z,89.07
2018-01-22T20:40:54.122Z,89.00
2018-01-22T20:43:22.522Z,89.03
2018-01-22T20:45:50.909Z,89.35
2018-01-22T20:48:19.357Z,89.45
2018-01-22T20:50:47.787Z,89.28
2018-01-22T20:53:16.182Z,89.26
2018-01-22T20:55:44.612Z,89.00
2018-01-22T20:58:13.039Z,88.70
2018-01-22T21:00:41.481Z,88.93
2018-01-22T21:03:09.956Z,88.79
2018-01-22T21:05:38.377Z,88.49
2018-01-22T21:08:06.803Z,88.61
2018-01-22T21:10:35.272Z,88.19
2018-01-22T21:13:03.665Z,88.38
2018-01-22T21:15:32.066Z,88.21
2018-01-22T21:18:00.506Z,88.20
2018-01-22T21:20:28.908Z,87.99
2018-01-22T21:22:57.327Z,88.09
2018-01-22T21:25:25.793Z,87.83
2018-01-22T21:27:54.208Z,87.67
2018-01-22T21:30:22.609Z,87.79
2018-01-22T21:32:51.059Z,87.94
2018-01-22T21:35:19.453Z,87.83
2018-01-22T21:37:47.847Z,87.13
2018-01-22T21:40:16.337Z,87.78
2018-01-22T21:42:44.755Z,87.51
2018-01-22T21:45:13.138Z,86.97
2018-01-22T21:47:41.558Z,87.43
2018-01-22T21:50:09.949Z,87.58
2018-01-22T21:52:38.363Z,87.54
2018-01-22T21:55:07.133Z,87.28
2018-01-22T21:57:35.573Z,86.93
2018-01-22T22:00:04.059Z,87.05
2018-01-22T22:02:32.499Z,86.97
2018-01-22T22:05:00.914Z,86.82
2018-01-22T22:07:29.349Z,86.65
2018-01-22T22:09:57.805Z,86.81
2018-01-22T22:12:26.226Z,86.82
2018-01-22T22:14:54.617Z,86.65
2018-01-22T22:17:23.969Z,86.42
2018-01-22T22:19:52.399Z,86.64
2018-01-22T22:22:20.840Z,86.90
2018-01-22T22:24:49.307Z,86.36
2018-01-22T22:27:17.713Z,86.64
2018-01-22T22:29:46.113Z,86.39
2018-01-22T22:32:14.551Z,86.16
2018-01-22T22:34:42.942Z,86.14
2018-01-22T22:37:11.335Z,86.12
2018-01-22T22:39:39.882Z,86.04
2018-01-22T22:42:08.309Z,86.21
2018-01-22T22:44:36.743Z,86.30
2018-01-22T22:47:05.241Z,85.67
2018-01-22T22:49:33.670Z,86.16
2018-01-22T22:52:02.078Z,86.03
2018-01-22T22:54:30.526Z,86.22
2018-01-22T22:56:58.946Z,86.11
2018-01-22T22:59:27.352Z,86.14
2018-01-22T23:01:55.813Z,85.89
2018-01-22T23:04:24.239Z,85.82
2018-01-22T23:06:52.645Z,85.88
2018-01-22T23:09:21.106Z,85.69
2018-01-22T23:11:49.533Z,86.43
2018-01-22T23:14:17.952Z,86.24
2018-01-22T23:16:46.427Z,86.54
2018-01-22T23:19:14.882Z,86.58
2018-01-22T23:21:43.312Z,86.46
2018-01-22T23:24:11.895Z,86.20
2018-01-22T23:26:40.285Z,86.06
2018-01-22T23:29:08.711Z,86.03
2018-01-22T23:31:37.169Z,86.26
2018-01-22T23:34:05.558Z,86.26
2018-01-22T23:36:33.964Z,86.52
2018-01-22T23:39:02.469Z,85.95
2018-01-22T23:41:30.889Z,86.18
2018-01-22T23:43:59.285Z,85.97
2018-01-22T23:46:27.732Z,86.34
2018-01-22T23:48:56.172Z,86.43
2018-01-22T23:51:24.603Z,86.36
2018-01-22T23:53:53.059Z,86.76
2018-01-22T23:56:21.484Z,86.39
2018-01-22T23:58:49.887Z,86.46
